createdAt,value
2022-11-27T00:02:22.332Z,3.27
2022-11-27T00:04:48.909Z,3.31
2022-11-27T00:07:15.573Z,3.28
2022-11-27T00:09:44.264Z,3.33
2022-11-27T00:12:11.163Z,3.25
2022-11-27T00:14:41.315Z,3.29
2022-11-27T00:17:08.159Z,3.25
2022-11-27T00:19:34.843Z,3.30
2022-11-27T00:22:01.760Z,3.24
2022-11-27T00:24:28.534Z,3.15
2022-11-27T00:26:55.191Z,3.19
2022-11-27T00:29:22.089Z,3.30
2022-11-27T00:31:48.767Z,3.22
2022-11-27T00:34:15.448Z,3.23
2022-11-27T00:36:46.585Z,3.31
2022-11-27T00:39:15.107Z,3.25
2022-11-27T00:41:41.708Z,3.23
2022-11-27T00:44:08.368Z,3.12
2022-11-27T00:46:35.535Z,3.13
2022-11-27T00:49:06.132Z,3.08
2022-11-27T00:51:33.157Z,3.10
2022-11-27T00:53:59.897Z,3.06
2022-11-27T00:56:29.572Z,3.14
2022-11-27T00:58:56.697Z,3.20
2022-11-27T01:01:31.038Z,3.18
2022-11-27T01:03:58.704Z,3.05
2022-11-27T01:06:28.768Z,3.06
2022-11-27T01:08:55.559Z,3.14
2022-11-27T01:11:28.204Z,3.02
2022-11-27T01:14:00.740Z,3.03
2022-11-27T01:16:28.894Z,3.03
2022-11-27T01:18:57.823Z,3.01
2022-11-27T01:21:25.988Z,2.95
2022-11-27T01:23:53.772Z,2.92
2022-11-27T01:26:23.635Z,2.89
2022-11-27T01:28:56.049Z,2.98
2022-11-27T01:31:25.761Z,2.94
2022-11-27T01:33:54.837Z,2.98
2022-11-27T01:36:21.978Z,3.05
2022-11-27T01:38:48.663Z,2.96
2022-11-27T01:41:18.922Z,2.98
2022-11-27T01:43:51.640Z,3.10
2022-11-27T01:46:36.644Z,2.99
2022-11-27T01:49:12.387Z,2.96
2022-11-27T01:51:47.373Z,2.90
2022-11-27T01:54:19.303Z,2.90
2022-11-27T01:56:49.096Z,2.96
2022-11-27T01:59:17.583Z,2.88
2022-11-27T02:01:44.298Z,2.90
2022-11-27T02:04:11.094Z,2.97
2022-11-27T02:06:37.709Z,2.88
2022-11-27T02:09:04.395Z,2.82
2022-11-27T02:12:11.424Z,2.88
2022-11-27T02:14:50.398Z,2.87
2022-11-27T02:17:34.092Z,2.89
2022-11-27T02:20:38.918Z,2.91
2022-11-27T02:23:14.600Z,2.90
2022-11-27T02:26:15.308Z,2.79
2022-11-27T02:29:04.295Z,2.88
2022-11-27T02:31:40.760Z,2.88
2022-11-27T02:34:10.555Z,2.85
2022-11-27T02:36:37.958Z,2.91
2022-11-27T02:39:12.356Z,2.98
2022-11-27T02:41:47.775Z,2.88
2022-11-27T02:44:15.206Z,2.86
2022-11-27T02:46:42.153Z,2.85
2022-11-27T02:49:12.087Z,2.78
2022-11-27T02:51:43.563Z,2.77
2022-11-27T02:54:14.065Z,2.86
2022-11-27T02:56:41.895Z,2.75
2022-11-27T02:59:11.969Z,2.87
2022-11-27T03:01:43.486Z,2.72
2022-11-27T03:04:14.882Z,2.76
2022-11-27T03:06:45.442Z,2.87
2022-11-27T03:09:25.552Z,2.82
2022-11-27T03:11:52.764Z,2.87
2022-11-27T03:14:24.421Z,2.84
2022-11-27T03:17:00.010Z,2.85
2022-11-27T03:19:31.472Z,2.79
2022-11-27T03:22:02.216Z,2.73
2022-11-27T03:24:30.478Z,2.61
2022-11-27T03:27:00.391Z,2.80
2022-11-27T03:29:55.924Z,2.82
2022-11-27T03:32:26.316Z,2.74
2022-11-27T03:34:53.259Z,2.92
2022-11-27T03:37:20.212Z,2.81
2022-11-27T03:39:47.344Z,2.68
2022-11-27T03:42:29.505Z,2.68
2022-11-27T03:45:11.342Z,2.61
2022-11-27T03:48:04.340Z,2.68
2022-11-27T03:50:55.842Z,2.81
2022-11-27T03:53:38.246Z,2.75
2022-11-27T03:56:24.717Z,2.77
2022-11-27T03:59:10.773Z,2.70
2022-11-27T04:01:37.622Z,2.68
2022-11-27T04:04:04.477Z,2.66
2022-11-27T04:06:31.144Z,2.63
2022-11-27T04:08:57.877Z,2.59
2022-11-27T04:11:24.444Z,2.59
2022-11-27T04:13:52.252Z,2.62
2022-11-27T04:16:26.561Z,2.70
2022-11-27T04:18:53.273Z,2.78
2022-11-27T04:21:20.704Z,2.68
2022-11-27T04:23:50.196Z,2.80
2022-11-27T04:26:17.060Z,2.86
2022-11-27T04:28:43.667Z,2.80
2022-11-27T04:31:10.356Z,2.71
2022-11-27T04:33:37.004Z,2.85
2022-11-27T04:36:03.827Z,2.73
2022-11-27T04:38:30.539Z,2.72
2022-11-27T04:41:00.278Z,2.68
2022-11-27T04:43:26.971Z,2.68
2022-11-27T04:45:53.585Z,2.64
2022-11-27T04:48:20.146Z,2.58
2022-11-27T04:50:46.770Z,2.40
2022-11-27T04:53:13.479Z,2.65
2022-11-27T04:55:40.215Z,2.59
2022-11-27T04:58:06.911Z,2.44
2022-11-27T05:00:33.774Z,2.47
2022-11-27T05:03:00.492Z,2.39
2022-11-27T05:05:32.202Z,2.42
2022-11-27T05:08:06.226Z,2.44
2022-11-27T05:10:32.813Z,2.52
2022-11-27T05:13:09.256Z,2.50
2022-11-27T05:15:35.886Z,2.62
2022-11-27T05:18:06.323Z,2.59
2022-11-27T05:20:45.169Z,2.44
2022-11-27T05:23:11.823Z,2.41
2022-11-27T05:25:39.109Z,2.52
2022-11-27T05:28:05.839Z,2.68
2022-11-27T05:30:40.014Z,2.58
2022-11-27T05:33:06.772Z,2.50
2022-11-27T05:35:33.596Z,2.55
2022-11-27T05:38:00.280Z,2.47
2022-11-27T05:40:29.644Z,2.61
2022-11-27T05:42:56.232Z,2.55
2022-11-27T05:45:22.807Z,2.53
2022-11-27T05:47:49.342Z,2.61
2022-11-27T05:50:15.979Z,2.60
2022-11-27T05:52:44.814Z,2.62
2022-11-27T05:55:11.449Z,2.58
2022-11-27T05:57:38.582Z,2.55
2022-11-27T06:00:06.816Z,2.55
2022-11-27T06:02:33.471Z,2.51
2022-11-27T06:05:00.100Z,2.52
2022-11-27T06:07:26.791Z,2.57
2022-11-27T06:09:53.520Z,2.56
2022-11-27T06:12:20.180Z,2.51
2022-11-27T06:14:46.759Z,2.48
2022-11-27T06:17:16.424Z,2.48
2022-11-27T06:19:43.221Z,2.51
2022-11-27T06:22:10.094Z,2.52
2022-11-27T06:24:38.330Z,2.62
2022-11-27T06:27:05.133Z,2.55
2022-11-27T06:29:31.749Z,2.65
2022-11-27T06:31:58.453Z,2.61
2022-11-27T06:34:25.042Z,2.52
2022-11-27T06:36:51.677Z,2.53
2022-11-27T06:39:18.263Z,2.58
2022-11-27T06:41:44.901Z,2.59
2022-11-27T06:44:11.530Z,2.64
2022-11-27T06:46:38.129Z,2.59
2022-11-27T06:49:04.812Z,2.55
2022-11-27T06:51:32.384Z,2.56
2022-11-27T06:54:00.316Z,2.59
2022-11-27T06:56:28.453Z,2.63
2022-11-27T06:59:00.043Z,2.67
2022-11-27T07:01:30.577Z,2.57
2022-11-27T07:03:57.996Z,2.66
2022-11-27T07:06:26.109Z,2.74
2022-11-27T07:08:54.081Z,2.72
2022-11-27T07:11:23.402Z,2.63
2022-11-27T07:13:51.851Z,2.63
2022-11-27T07:16:18.948Z,2.65
2022-11-27T07:18:49.453Z,2.70
2022-11-27T07:21:16.852Z,2.69
2022-11-27T07:23:46.601Z,2.76
2022-11-27T07:26:18.737Z,2.74
2022-11-27T07:28:45.704Z,2.90
2022-11-27T07:31:17.803Z,2.82
2022-11-27T07:33:44.625Z,2.96
2022-11-27T07:36:14.766Z,3.09
2022-11-27T07:38:41.960Z,3.05
2022-11-27T07:41:09.033Z,3.08
2022-11-27T07:43:36.632Z,3.06
2022-11-27T07:46:05.256Z,3.11
2022-11-27T07:48:32.357Z,3.16
2022-11-27T07:50:58.983Z,3.03
2022-11-27T07:53:25.667Z,3.01
2022-11-27T07:55:52.315Z,3.05
2022-11-27T07:58:18.931Z,3.11
2022-11-27T08:00:45.555Z,3.15
2022-11-27T08:03:12.256Z,3.28
2022-11-27T08:05:38.865Z,3.13
2022-11-27T08:08:05.543Z,3.11
2022-11-27T08:10:35.822Z,3.08
2022-11-27T08:13:02.513Z,3.03
2022-11-27T08:15:29.205Z,3.08
2022-11-27T08:17:55.777Z,3.13
2022-11-27T08:20:22.641Z,3.22
2022-11-27T08:22:49.270Z,3.28
2022-11-27T08:25:16.364Z,3.22
2022-11-27T08:27:43.349Z,3.24
2022-11-27T08:30:10.744Z,3.29
2022-11-27T08:32:41.849Z,3.33
2022-11-27T08:35:10.232Z,3.37
2022-11-27T08:37:37.447Z,3.31
2022-11-27T08:40:06.147Z,3.24
2022-11-27T08:42:32.967Z,3.27
2022-11-27T08:44:59.730Z,3.29
2022-11-27T08:47:26.425Z,3.33
2022-11-27T08:49:53.009Z,3.42
2022-11-27T08:52:20.634Z,3.46
2022-11-27T08:54:47.357Z,3.52
2022-11-27T08:57:15.117Z,3.56
2022-11-27T08:59:42.027Z,3.52
2022-11-27T09:02:12.306Z,3.58
2022-11-27T09:04:39.245Z,3.59
2022-11-27T09:07:06.067Z,3.63
2022-11-27T09:09:32.870Z,3.88
2022-11-27T09:11:59.612Z,3.86
2022-11-27T09:14:26.312Z,3.92
2022-11-27T09:16:53.900Z,3.99
2022-11-27T09:19:21.631Z,4.14
2022-11-27T09:21:49.966Z,4.30
2022-11-27T09:24:16.556Z,4.44
2022-11-27T09:26:44.786Z,4.45
2022-11-27T09:29:11.421Z,4.53
2022-11-27T09:31:38.106Z,4.59
2022-11-27T09:34:05.597Z,4.61
2022-11-27T09:36:32.276Z,4.83
2022-11-27T09:38:59.670Z,4.76
2022-11-27T09:41:47.644Z,4.72
2022-11-27T09:44:35.478Z,4.72
2022-11-27T09:47:12.877Z,4.86
2022-11-27T09:49:44.618Z,5.01
2022-11-27T09:52:49.520Z,5.04
2022-11-27T09:55:37.315Z,5.12
2022-11-27T09:58:23.851Z,5.24
2022-11-27T10:00:50.425Z,5.25
2022-11-27T10:03:21.826Z,5.27
2022-11-27T10:05:57.625Z,5.38
2022-11-27T10:08:46.890Z,5.41
2022-11-27T10:11:16.649Z,5.52
2022-11-27T10:13:55.561Z,5.57
2022-11-27T10:16:44.126Z,5.60
2022-11-27T10:19:21.815Z,5.57
2022-11-27T10:21:57.227Z,5.77
2022-11-27T10:24:48.264Z,5.81
2022-11-27T10:27:25.922Z,5.86
2022-11-27T10:29:56.038Z,5.87
2022-11-27T10:32:54.737Z,5.94
2022-11-27T10:35:21.035Z,5.95
2022-11-27T10:38:20.078Z,6.02
2022-11-27T10:40:52.019Z,6.20
2022-11-27T10:43:21.310Z,6.22
2022-11-27T10:45:57.790Z,6.36
2022-11-27T10:48:25.048Z,6.33
2022-11-27T10:50:51.721Z,6.24
2022-11-27T10:53:36.445Z,6.31
2022-11-27T10:56:38.711Z,6.46
2022-11-27T10:59:14.081Z,6.48
2022-11-27T11:01:53.248Z,6.44
2022-11-27T11:04:54.511Z,6.52
2022-11-27T11:07:26.052Z,6.60
2022-11-27T11:09:54.235Z,6.71
2022-11-27T11:12:22.740Z,6.73
2022-11-27T11:14:55.553Z,6.70
2022-11-27T11:17:27.425Z,6.82
2022-11-27T11:19:54.334Z,6.84
2022-11-27T11:22:21.455Z,6.68
2022-11-27T11:24:49.796Z,6.70
2022-11-27T11:27:21.405Z,6.83
2022-11-27T11:29:54.609Z,6.70
2022-11-27T11:32:21.185Z,6.67
2022-11-27T11:35:00.648Z,6.67
2022-11-27T11:37:30.958Z,6.77
2022-11-27T11:40:01.607Z,6.90
2022-11-27T11:42:31.233Z,6.84
2022-11-27T11:45:02.815Z,6.90
2022-11-27T11:47:29.544Z,6.90
2022-11-27T11:49:56.641Z,6.97
2022-11-27T11:52:38.481Z,6.95
2022-11-27T11:55:12.125Z,6.93
2022-11-27T11:58:11.140Z,6.99
2022-11-27T12:01:11.705Z,6.90
2022-11-27T12:04:05.972Z,6.84
2022-11-27T12:06:46.136Z,7.02
2022-11-27T12:09:22.056Z,6.94
2022-11-27T12:11:54.703Z,7.04
2022-11-27T12:14:43.346Z,7.13
2022-11-27T12:17:32.783Z,7.11
2022-11-27T12:20:13.138Z,7.02
2022-11-27T12:22:52.648Z,7.03
2022-11-27T12:25:22.474Z,7.09
2022-11-27T12:27:56.824Z,7.04
2022-11-27T12:30:26.526Z,7.04
2022-11-27T12:33:05.638Z,6.98
2022-11-27T12:36:00.123Z,7.09
2022-11-27T12:39:02.073Z,7.04
2022-11-27T12:41:47.029Z,7.13
2022-11-27T12:44:39.989Z,7.10
2022-11-27T12:47:26.879Z,7.18
2022-11-27T12:50:00.675Z,7.17
2022-11-27T12:52:34.907Z,7.21
2022-11-27T12:55:06.608Z,7.17
2022-11-27T12:57:51.840Z,7.27
2022-11-27T13:00:20.805Z,7.37
2022-11-27T13:02:57.727Z,7.20
2022-11-27T13:05:27.094Z,7.24
2022-11-27T13:08:02.705Z,7.31
2022-11-27T13:10:42.608Z,7.35
2022-11-27T13:13:22.416Z,7.32
2022-11-27T13:15:56.646Z,7.28
2022-11-27T13:18:33.006Z,7.24
2022-11-27T13:21:02.648Z,7.32
2022-11-27T13:23:33.084Z,7.28
2022-11-27T13:26:02.342Z,7.29
2022-11-27T13:28:40.158Z,7.26
2022-11-27T13:31:07.588Z,7.23
2022-11-27T13:33:43.206Z,7.22
2022-11-27T13:36:22.224Z,7.30
2022-11-27T13:39:07.180Z,7.28
2022-11-27T13:41:40.254Z,7.26
2022-11-27T13:44:24.949Z,7.23
2022-11-27T13:46:54.940Z,7.23
2022-11-27T13:49:43.340Z,7.26
2022-11-27T13:52:12.853Z,7.34
2022-11-27T13:54:40.679Z,7.23
2022-11-27T13:57:15.828Z,7.22
2022-11-27T13:59:58.178Z,7.21
2022-11-27T14:02:25.945Z,7.22
2022-11-27T14:04:56.471Z,7.23
2022-11-27T14:07:24.212Z,7.27
2022-11-27T14:09:56.218Z,7.23
2022-11-27T14:12:28.399Z,7.13
2022-11-27T14:15:08.782Z,7.14
2022-11-27T14:17:40.085Z,7.07
2022-11-27T14:20:21.468Z,6.99
2022-11-27T14:25:37.782Z,7.01
2022-11-27T14:28:17.388Z,7.05
2022-11-27T14:30:47.645Z,7.00
2022-11-27T14:33:28.813Z,6.97
2022-11-27T14:36:00.520Z,7.00
2022-11-27T14:38:28.441Z,6.96
2022-11-27T14:41:08.475Z,6.85
2022-11-27T14:43:35.249Z,6.96
2022-11-27T14:46:02.961Z,6.84
2022-11-27T14:49:05.157Z,6.84
2022-11-27T14:51:35.168Z,6.82
2022-11-27T14:54:04.466Z,6.78
2022-11-27T14:56:37.640Z,6.83
2022-11-27T14:59:04.351Z,6.93
2022-11-27T15:01:33.964Z,6.85
2022-11-27T15:04:06.732Z,6.74
2022-11-27T15:06:37.815Z,6.70
2022-11-27T15:09:30.305Z,6.62
2022-11-27T15:11:57.028Z,6.63
2022-11-27T15:14:25.933Z,6.71
2022-11-27T15:16:53.588Z,6.80
2022-11-27T15:19:36.000Z,6.74
2022-11-27T15:22:03.189Z,6.69
2022-11-27T15:24:37.733Z,6.67
2022-11-27T15:27:22.780Z,6.73
2022-11-27T15:29:49.407Z,6.71
2022-11-27T15:32:27.917Z,6.74
2022-11-27T15:34:54.857Z,6.72
2022-11-27T15:37:35.054Z,6.69
2022-11-27T15:40:02.044Z,6.61
2022-11-27T15:42:28.773Z,6.71
2022-11-27T15:44:57.312Z,6.66
2022-11-27T15:47:33.369Z,6.61
2022-11-27T15:50:00.421Z,6.57
2022-11-27T15:52:27.492Z,6.56
2022-11-27T15:54:55.418Z,6.65
2022-11-27T15:57:22.304Z,6.61
2022-11-27T15:59:48.915Z,6.59
2022-11-27T16:02:18.020Z,6.52
2022-11-27T16:04:45.146Z,6.57
2022-11-27T16:07:11.852Z,6.51
2022-11-27T16:09:39.760Z,6.69
2022-11-27T16:12:06.767Z,6.60
2022-11-27T16:14:34.905Z,6.68
2022-11-27T16:17:01.813Z,6.57
2022-11-27T16:19:28.725Z,6.57
2022-11-27T16:21:55.479Z,6.62
2022-11-27T16:24:22.321Z,6.59
2022-11-27T16:26:48.886Z,6.54
2022-11-27T16:29:15.562Z,6.62
2022-11-27T16:31:42.400Z,6.64
2022-11-27T16:34:09.372Z,6.63
2022-11-27T16:36:41.384Z,6.65
2022-11-27T16:39:10.051Z,6.63
2022-11-27T16:41:37.220Z,6.62
2022-11-27T16:44:10.581Z,6.64
2022-11-27T16:46:38.930Z,6.69
2022-11-27T16:49:06.765Z,6.65
2022-11-27T16:51:34.586Z,6.64
2022-11-27T16:54:03.814Z,6.70
2022-11-27T16:56:32.361Z,6.65
2022-11-27T16:59:02.995Z,6.63
2022-11-27T17:01:34.310Z,6.56
2022-11-27T17:04:03.469Z,6.61
2022-11-27T17:06:31.879Z,6.55
2022-11-27T17:09:00.168Z,6.63
2022-11-27T17:11:29.360Z,6.62
2022-11-27T17:13:59.640Z,6.55
2022-11-27T17:16:26.458Z,6.58
2022-11-27T17:18:53.538Z,6.60
2022-11-27T17:21:28.744Z,6.64
2022-11-27T17:23:56.648Z,6.62
2022-11-27T17:26:24.894Z,6.55
2022-11-27T17:28:55.568Z,6.64
2022-11-27T17:31:25.337Z,6.63
2022-11-27T17:33:54.234Z,6.64
2022-11-27T17:36:21.013Z,6.63
2022-11-27T17:38:47.709Z,6.63
2022-11-27T17:41:14.775Z,6.57
2022-11-27T17:43:42.326Z,6.56
2022-11-27T17:46:17.058Z,6.57
2022-11-27T17:48:44.308Z,6.52
2022-11-27T17:51:11.302Z,6.55
2022-11-27T17:53:37.945Z,6.65
2022-11-27T17:56:10.449Z,6.56
2022-11-27T17:58:37.499Z,6.54
2022-11-27T18:01:05.405Z,6.60
2022-11-27T18:03:35.899Z,6.51
2022-11-27T18:06:04.956Z,6.55
2022-11-27T18:08:32.177Z,6.52
2022-11-27T18:11:05.072Z,6.62
2022-11-27T18:13:32.573Z,6.55
2022-11-27T18:16:20.712Z,6.55
2022-11-27T18:18:49.478Z,6.53
2022-11-27T18:21:18.701Z,6.41
2022-11-27T18:24:20.663Z,6.53
2022-11-27T18:27:00.599Z,6.62
2022-11-27T18:29:20.767Z,6.54
2022-11-27T18:31:47.749Z,6.61
2022-11-27T18:34:14.491Z,6.55
2022-11-27T18:36:41.077Z,6.56
2022-11-27T18:39:07.760Z,6.55
2022-11-27T18:41:34.804Z,6.49
2022-11-27T18:44:01.761Z,6.51
2022-11-27T18:46:28.520Z,6.52
2022-11-27T18:48:55.216Z,6.48
2022-11-27T18:51:24.265Z,6.50
2022-11-27T18:53:51.951Z,6.47
2022-11-27T18:56:21.987Z,6.51
2022-11-27T18:58:49.171Z,6.37
2022-11-27T19:01:19.131Z,6.35
2022-11-27T19:03:46.382Z,6.41
2022-11-27T19:06:14.447Z,6.33
2022-11-27T19:08:41.762Z,6.44
2022-11-27T19:11:11.728Z,6.36
2022-11-27T19:13:39.141Z,6.27
2022-11-27T19:16:11.564Z,6.34
2022-11-27T19:18:38.325Z,6.30
2022-11-27T19:21:10.104Z,6.30
2022-11-27T19:23:39.353Z,6.36
2022-11-27T19:26:18.300Z,6.38
2022-11-27T19:28:48.376Z,6.39
2022-11-27T19:31:16.394Z,6.32
2022-11-27T19:33:43.588Z,6.24
2022-11-27T19:36:13.793Z,6.24
2022-11-27T19:38:42.007Z,6.16
2022-11-27T19:41:16.859Z,6.23
2022-11-27T19:43:43.766Z,6.21
2022-11-27T19:46:37.339Z,6.25
2022-11-27T19:49:07.266Z,6.20
2022-11-27T19:51:36.435Z,6.20
2022-11-27T19:54:07.060Z,6.13
2022-11-27T19:56:39.938Z,6.16
2022-11-27T19:59:07.142Z,6.21
2022-11-27T20:01:34.099Z,6.11
2022-11-27T20:04:02.066Z,6.16
2022-11-27T20:06:28.784Z,6.22
2022-11-27T20:09:01.076Z,6.22
2022-11-27T20:11:34.305Z,6.17
2022-11-27T20:14:01.561Z,6.19
2022-11-27T20:16:28.270Z,6.14
2022-11-27T20:18:55.404Z,6.08
2022-11-27T20:21:24.825Z,6.05
2022-11-27T20:23:52.626Z,6.14
2022-11-27T20:26:22.102Z,6.05
2022-11-27T20:28:49.396Z,6.00
2022-11-27T20:31:22.278Z,5.96
2022-11-27T20:33:49.032Z,6.02
2022-11-27T20:36:17.674Z,6.06
2022-11-27T20:38:45.273Z,6.13
2022-11-27T20:41:14.640Z,6.05
2022-11-27T20:43:41.556Z,6.07
2022-11-27T20:46:08.244Z,6.05
2022-11-27T20:48:35.273Z,6.07
2022-11-27T20:51:10.734Z,6.06
2022-11-27T20:53:37.998Z,5.98
2022-11-27T20:56:06.145Z,5.95
2022-11-27T20:58:34.879Z,5.95
2022-11-27T21:01:20.117Z,5.88
2022-11-27T21:03:49.352Z,5.87
2022-11-27T21:06:17.484Z,5.92
2022-11-27T21:08:44.389Z,5.84
2022-11-27T21:11:16.002Z,6.01
2022-11-27T21:13:43.857Z,5.95
2022-11-27T21:16:12.459Z,5.81
2022-11-27T21:18:39.841Z,5.78
2022-11-27T21:21:08.461Z,5.81
2022-11-27T21:23:35.454Z,5.76
2022-11-27T21:26:02.020Z,5.73
2022-11-27T21:28:30.752Z,5.90
2022-11-27T21:31:05.778Z,5.93
2022-11-27T21:33:32.574Z,5.87
2022-11-27T21:35:59.998Z,5.70
2022-11-27T21:38:27.120Z,5.62
2022-11-27T21:40:54.163Z,5.54
2022-11-27T21:43:20.769Z,5.50
2022-11-27T21:45:48.313Z,5.45
2022-11-27T21:48:14.919Z,5.48
2022-11-27T21:50:41.595Z,5.46
2022-11-27T21:53:08.224Z,5.46
2022-11-27T21:55:39.349Z,5.49
2022-11-27T21:58:06.550Z,5.43
2022-11-27T22:00:33.231Z,5.43
2022-11-27T22:02:59.813Z,5.39
2022-11-27T22:05:26.420Z,5.35
2022-11-27T22:07:53.110Z,5.36
2022-11-27T22:10:19.776Z,5.38
2022-11-27T22:12:46.383Z,5.30
2022-11-27T22:15:12.940Z,5.41
2022-11-27T22:17:39.605Z,5.30
2022-11-27T22:20:06.895Z,5.27
2022-11-27T22:22:33.999Z,5.20
2022-11-27T22:25:04.180Z,5.27
2022-11-27T22:27:31.043Z,5.32
2022-11-27T22:29:57.636Z,5.30
2022-11-27T22:32:24.307Z,5.19
2022-11-27T22:34:51.550Z,5.21
2022-11-27T22:37:18.194Z,5.16
2022-11-27T22:39:44.787Z,5.18
2022-11-27T22:42:12.300Z,5.21
2022-11-27T22:44:39.341Z,5.27
2022-11-27T22:47:05.995Z,5.28
2022-11-27T22:49:32.682Z,5.27
2022-11-27T22:51:59.377Z,5.30
2022-11-27T22:54:26.031Z,5.32
2022-11-27T22:56:54.266Z,5.33
2022-11-27T22:59:36.088Z,5.34
2022-11-27T23:02:06.324Z,5.44
2022-11-27T23:04:34.421Z,5.31
2022-11-27T23:07:01.751Z,5.28
2022-11-27T23:09:29.247Z,5.30
2022-11-27T23:11:56.972Z,5.31
2022-11-27T23:14:24.715Z,5.30
2022-11-27T23:16:51.391Z,5.36
2022-11-27T23:19:18.504Z,5.28
2022-11-27T23:21:45.219Z,5.30
2022-11-27T23:24:13.679Z,5.30
2022-11-27T23:26:40.328Z,5.28
2022-11-27T23:29:07.023Z,5.34
2022-11-27T23:31:35.276Z,5.33
2022-11-27T23:34:05.266Z,5.35
2022-11-27T23:36:32.281Z,5.28
2022-11-27T23:39:04.457Z,5.37
2022-11-27T23:41:31.413Z,5.37
2022-11-27T23:43:58.095Z,5.35
2022-11-27T23:46:27.640Z,5.39
2022-11-27T23:48:55.658Z,5.33
2022-11-27T23:51:26.024Z,5.28
2022-11-27T23:53:53.306Z,5.29
2022-11-27T23:56:25.184Z,5.29
2022-11-27T23:58:52.127Z,5.31
